sensor_id;sensor_type;location;lat;lon;timestamp;temperature;humidity
45435;DHT22;31183;47.404;8.500;2023-11-19T00:01:05;8.90;99.90
45435;DHT22;31183;47.404;8.500;2023-11-19T00:03:32;8.90;99.90
45435;DHT22;31183;47.404;8.500;2023-11-19T00:06:00;8.90;99.90
45435;DHT22;31183;47.404;8.500;2023-11-19T00:08:26;8.90;99.90
45435;DHT22;31183;47.404;8.500;2023-11-19T00:10:53;8.90;99.90
45435;DHT22;31183;47.404;8.500;2023-11-19T00:13:20;9.00;99.90
45435;DHT22;31183;47.404;8.500;2023-11-19T00:15:46;9.00;99.90
45435;DHT22;31183;47.404;8.500;2023-11-19T00:18:14;9.00;99.90
45435;DHT22;31183;47.404;8.500;2023-11-19T00:20:40;9.10;99.90
45435;DHT22;31183;47.404;8.500;2023-11-19T00:23:08;9.10;99.90
45435;DHT22;31183;47.404;8.500;2023-11-19T00:25:34;9.10;99.90
45435;DHT22;31183;47.404;8.500;2023-11-19T00:28:01;9.10;99.90
45435;DHT22;31183;47.404;8.500;2023-11-19T00:30:27;9.10;99.90
45435;DHT22;31183;47.404;8.500;2023-11-19T00:32:54;9.10;99.90
45435;DHT22;31183;47.404;8.500;2023-11-19T00:35:21;9.10;99.90
45435;DHT22;31183;47.404;8.500;2023-11-19T00:37:48;9.10;99.90
45435;DHT22;31183;47.404;8.500;2023-11-19T00:40:15;9.10;99.90
45435;DHT22;31183;47.404;8.500;2023-11-19T00:42:44;9.10;99.90
45435;DHT22;31183;47.404;8.500;2023-11-19T00:45:11;9.10;99.90
45435;DHT22;31183;47.404;8.500;2023-11-19T00:47:39;9.10;99.90
45435;DHT22;31183;47.404;8.500;2023-11-19T00:50:07;9.10;99.90
45435;DHT22;31183;47.404;8.500;2023-11-19T00:52:36;9.10;99.90
45435;DHT22;31183;47.404;8.500;2023-11-19T00:55:04;9.10;99.90
45435;DHT22;31183;47.404;8.500;2023-11-19T00:57:31;9.10;99.90
45435;DHT22;31183;47.404;8.500;2023-11-19T01:00:00;9.10;99.90
45435;DHT22;31183;47.404;8.500;2023-11-19T01:02:26;9.10;99.90
45435;DHT22;31183;47.404;8.500;2023-11-19T01:04:53;9.10;99.90
45435;DHT22;31183;47.404;8.500;2023-11-19T01:07:20;9.10;99.90
45435;DHT22;31183;47.404;8.500;2023-11-19T01:09:48;9.10;99.90
45435;DHT22;31183;47.404;8.500;2023-11-19T01:12:15;9.10;99.90
45435;DHT22;31183;47.404;8.500;2023-11-19T01:14:41;9.20;99.90
45435;DHT22;31183;47.404;8.500;2023-11-19T01:17:08;9.10;99.90
45435;DHT22;31183;47.404;8.500;2023-11-19T01:19:35;9.20;99.90
45435;DHT22;31183;47.404;8.500;2023-11-19T01:22:02;9.20;99.90
45435;DHT22;31183;47.404;8.500;2023-11-19T01:24:29;9.30;99.90
45435;DHT22;31183;47.404;8.500;2023-11-19T01:26:57;9.30;99.90
45435;DHT22;31183;47.404;8.500;2023-11-19T01:29:26;9.30;99.90
45435;DHT22;31183;47.404;8.500;2023-11-19T01:31:53;9.30;99.90
45435;DHT22;31183;47.404;8.500;2023-11-19T01:34:19;9.30;99.90
45435;DHT22;31183;47.404;8.500;2023-11-19T01:36:46;9.40;99.90
45435;DHT22;31183;47.404;8.500;2023-11-19T01:39:15;9.40;99.90
45435;DHT22;31183;47.404;8.500;2023-11-19T01:41:46;9.40;99.90
45435;DHT22;31183;47.404;8.500;2023-11-19T01:44:13;9.50;99.90
45435;DHT22;31183;47.404;8.500;2023-11-19T01:46:44;9.50;99.90
45435;DHT22;31183;47.404;8.500;2023-11-19T01:49:13;9.50;99.90
45435;DHT22;31183;47.404;8.500;2023-11-19T01:51:41;9.50;99.90
45435;DHT22;31183;47.404;8.500;2023-11-19T01:54:08;9.50;99.90
45435;DHT22;31183;47.404;8.500;2023-11-19T01:56:36;9.60;99.90
45435;DHT22;31183;47.404;8.500;2023-11-19T01:59:04;9.60;99.90
45435;DHT22;31183;47.404;8.500;2023-11-19T02:01:30;9.60;99.90
45435;DHT22;31183;47.404;8.500;2023-11-19T02:03:59;9.60;99.90
45435;DHT22;31183;47.404;8.500;2023-11-19T02:06:26;9.70;99.90
45435;DHT22;31183;47.404;8.500;2023-11-19T02:08:54;9.70;99.90
45435;DHT22;31183;47.404;8.500;2023-11-19T02:11:21;9.70;99.90
45435;DHT22;31183;47.404;8.500;2023-11-19T02:13:48;9.70;99.90
45435;DHT22;31183;47.404;8.500;2023-11-19T02:16:14;9.70;99.90
45435;DHT22;31183;47.404;8.500;2023-11-19T02:18:41;9.70;99.90
45435;DHT22;31183;47.404;8.500;2023-11-19T02:21:08;9.70;99.90
45435;DHT22;31183;47.404;8.500;2023-11-19T02:23:37;9.70;99.90
45435;DHT22;31183;47.404;8.500;2023-11-19T02:26:20;9.70;99.90
45435;DHT22;31183;47.404;8.500;2023-11-19T02:28:49;9.70;99.90
45435;DHT22;31183;47.404;8.500;2023-11-19T02:31:16;9.80;99.90
45435;DHT22;31183;47.404;8.500;2023-11-19T02:33:43;9.80;99.90
45435;DHT22;31183;47.404;8.500;2023-11-19T02:36:10;9.80;99.90
45435;DHT22;31183;47.404;8.500;2023-11-19T02:38:37;9.80;99.90
45435;DHT22;31183;47.404;8.500;2023-11-19T02:41:04;9.80;99.90
45435;DHT22;31183;47.404;8.500;2023-11-19T02:43:33;9.80;99.90
45435;DHT22;31183;47.404;8.500;2023-11-19T02:46:01;9.80;99.90
45435;DHT22;31183;47.404;8.500;2023-11-19T02:48:28;9.80;99.90
45435;DHT22;31183;47.404;8.500;2023-11-19T02:50:54;9.80;99.90
45435;DHT22;31183;47.404;8.500;2023-11-19T02:53:21;9.80;99.90
45435;DHT22;31183;47.404;8.500;2023-11-19T02:55:48;9.80;99.90
45435;DHT22;31183;47.404;8.500;2023-11-19T02:58:16;9.80;99.90
45435;DHT22;31183;47.404;8.500;2023-11-19T03:00:47;9.80;99.90
45435;DHT22;31183;47.404;8.500;2023-11-19T03:03:29;9.80;99.90
45435;DHT22;31183;47.404;8.500;2023-11-19T03:05:57;9.80;99.90
45435;DHT22;31183;47.404;8.500;2023-11-19T03:08:24;9.80;99.90
45435;DHT22;31183;47.404;8.500;2023-11-19T03:10:51;9.80;99.90
45435;DHT22;31183;47.404;8.500;2023-11-19T03:13:17;9.80;99.90
45435;DHT22;31183;47.404;8.500;2023-11-19T03:15:44;9.80;99.90
45435;DHT22;31183;47.404;8.500;2023-11-19T03:18:12;9.70;99.90
45435;DHT22;31183;47.404;8.500;2023-11-19T03:20:39;9.70;99.90
45435;DHT22;31183;47.404;8.500;2023-11-19T03:23:05;9.70;99.90
45435;DHT22;31183;47.404;8.500;2023-11-19T03:25:33;9.70;99.90
45435;DHT22;31183;47.404;8.500;2023-11-19T03:28:01;9.70;99.90
45435;DHT22;31183;47.404;8.500;2023-11-19T03:30:29;9.70;99.90
45435;DHT22;31183;47.404;8.500;2023-11-19T03:32:59;9.70;99.90
45435;DHT22;31183;47.404;8.500;2023-11-19T03:35:30;9.70;99.90
45435;DHT22;31183;47.404;8.500;2023-11-19T03:37:57;9.70;99.90
45435;DHT22;31183;47.404;8.500;2023-11-19T03:40:23;9.70;99.90
45435;DHT22;31183;47.404;8.500;2023-11-19T03:42:51;9.70;99.90
45435;DHT22;31183;47.404;8.500;2023-11-19T03:45:18;9.60;99.90
45435;DHT22;31183;47.404;8.500;2023-11-19T03:47:44;9.60;99.90
45435;DHT22;31183;47.404;8.500;2023-11-19T03:50:11;9.70;99.90
45435;DHT22;31183;47.404;8.500;2023-11-19T03:52:38;9.70;99.90
45435;DHT22;31183;47.404;8.500;2023-11-19T03:55:07;9.70;99.90
45435;DHT22;31183;47.404;8.500;2023-11-19T03:57:35;9.70;99.90
45435;DHT22;31183;47.404;8.500;2023-11-19T04:00:02;9.70;99.90
45435;DHT22;31183;47.404;8.500;2023-11-19T04:02:41;9.70;99.90
45435;DHT22;31183;47.404;8.500;2023-11-19T04:05:08;9.70;99.90
45435;DHT22;31183;47.404;8.500;2023-11-19T04:07:34;9.70;99.90
45435;DHT22;31183;47.404;8.500;2023-11-19T04:10:01;9.70;99.90
45435;DHT22;31183;47.404;8.500;2023-11-19T04:12:28;9.70;99.90
45435;DHT22;31183;47.404;8.500;2023-11-19T04:14:55;9.70;99.90
45435;DHT22;31183;47.404;8.500;2023-11-19T04:17:25;9.70;99.90
45435;DHT22;31183;47.404;8.500;2023-11-19T04:19:52;9.80;99.90
45435;DHT22;31183;47.404;8.500;2023-11-19T04:22:18;9.80;99.90
45435;DHT22;31183;47.404;8.500;2023-11-19T04:24:45;9.80;99.90
45435;DHT22;31183;47.404;8.500;2023-11-19T04:27:12;9.80;99.90
45435;DHT22;31183;47.404;8.500;2023-11-19T04:29:40;9.80;99.90
45435;DHT22;31183;47.404;8.500;2023-11-19T04:32:06;9.90;99.90
45435;DHT22;31183;47.404;8.500;2023-11-19T04:34:34;9.90;99.90
45435;DHT22;31183;47.404;8.500;2023-11-19T04:37:00;9.90;99.90
45435;DHT22;31183;47.404;8.500;2023-11-19T04:39:39;9.90;99.90
45435;DHT22;31183;47.404;8.500;2023-11-19T04:42:06;9.90;99.90
45435;DHT22;31183;47.404;8.500;2023-11-19T04:44:33;9.90;99.90
45435;DHT22;31183;47.404;8.500;2023-11-19T04:47:00;9.90;99.90
45435;DHT22;31183;47.404;8.500;2023-11-19T04:49:27;9.90;99.90
45435;DHT22;31183;47.404;8.500;2023-11-19T04:51:54;9.90;99.90
45435;DHT22;31183;47.404;8.500;2023-11-19T04:54:21;9.90;99.90
45435;DHT22;31183;47.404;8.500;2023-11-19T04:56:47;9.90;99.90
45435;DHT22;31183;47.404;8.500;2023-11-19T04:59:15;9.90;99.90
45435;DHT22;31183;47.404;8.500;2023-11-19T05:01:46;10.00;99.90
45435;DHT22;31183;47.404;8.500;2023-11-19T05:04:12;10.00;99.90
45435;DHT22;31183;47.404;8.500;2023-11-19T05:06:39;10.00;99.90
45435;DHT22;31183;47.404;8.500;2023-11-19T05:09:05;10.00;99.90
45435;DHT22;31183;47.404;8.500;2023-11-19T05:11:35;10.00;99.90
45435;DHT22;31183;47.404;8.500;2023-11-19T05:14:03;10.00;99.90
45435;DHT22;31183;47.404;8.500;2023-11-19T05:16:32;10.00;99.90
45435;DHT22;31183;47.404;8.500;2023-11-19T05:18:59;10.00;99.90
45435;DHT22;31183;47.404;8.500;2023-11-19T05:21:26;10.00;99.90
45435;DHT22;31183;47.404;8.500;2023-11-19T05:23:53;10.00;99.90
45435;DHT22;31183;47.404;8.500;2023-11-19T05:26:21;10.10;99.90
45435;DHT22;31183;47.404;8.500;2023-11-19T05:28:48;10.10;99.90
45435;DHT22;31183;47.404;8.500;2023-11-19T05:31:16;10.10;99.90
45435;DHT22;31183;47.404;8.500;2023-11-19T05:33:43;10.10;99.90
45435;DHT22;31183;47.404;8.500;2023-11-19T05:36:11;10.10;99.90
45435;DHT22;31183;47.404;8.500;2023-11-19T05:38:39;10.10;99.90
45435;DHT22;31183;47.404;8.500;2023-11-19T05:41:06;10.20;99.90
45435;DHT22;31183;47.404;8.500;2023-11-19T05:43:33;10.20;99.90
45435;DHT22;31183;47.404;8.500;2023-11-19T05:46:00;10.20;99.90
45435;DHT22;31183;47.404;8.500;2023-11-19T05:48:28;10.20;99.90
45435;DHT22;31183;47.404;8.500;2023-11-19T05:50:55;10.20;99.90
45435;DHT22;31183;47.404;8.500;2023-11-19T05:53:22;10.20;99.90
45435;DHT22;31183;47.404;8.500;2023-11-19T05:55:49;10.20;99.90
45435;DHT22;31183;47.404;8.500;2023-11-19T05:58:25;10.30;99.90
45435;DHT22;31183;47.404;8.500;2023-11-19T06:00:52;10.30;99.90
45435;DHT22;31183;47.404;8.500;2023-11-19T06:03:19;10.20;99.90
45435;DHT22;31183;47.404;8.500;2023-11-19T06:05:49;10.30;99.90
45435;DHT22;31183;47.404;8.500;2023-11-19T06:08:16;10.30;99.90
45435;DHT22;31183;47.404;8.500;2023-11-19T06:10:44;10.30;99.90
45435;DHT22;31183;47.404;8.500;2023-11-19T06:13:13;10.40;99.90
45435;DHT22;31183;47.404;8.500;2023-11-19T06:15:42;10.40;99.90
45435;DHT22;31183;47.404;8.500;2023-11-19T06:18:09;10.40;99.90
45435;DHT22;31183;47.404;8.500;2023-11-19T06:20:36;10.40;99.90
45435;DHT22;31183;47.404;8.500;2023-11-19T06:23:06;10.40;99.90
45435;DHT22;31183;47.404;8.500;2023-11-19T06:25:33;10.40;99.90
45435;DHT22;31183;47.404;8.500;2023-11-19T06:28:01;10.50;99.90
45435;DHT22;31183;47.404;8.500;2023-11-19T06:30:28;10.50;99.90
45435;DHT22;31183;47.404;8.500;2023-11-19T06:32:56;10.50;99.90
45435;DHT22;31183;47.404;8.500;2023-11-19T06:35:23;10.60;99.90
45435;DHT22;31183;47.404;8.500;2023-11-19T06:37:49;10.60;99.90
45435;DHT22;31183;47.404;8.500;2023-11-19T06:40:16;10.60;99.90
45435;DHT22;31183;47.404;8.500;2023-11-19T06:42:43;10.60;99.90
45435;DHT22;31183;47.404;8.500;2023-11-19T06:45:09;10.70;99.90
45435;DHT22;31183;47.404;8.500;2023-11-19T06:47:36;10.70;99.90
45435;DHT22;31183;47.404;8.500;2023-11-19T06:50:03;10.70;99.90
45435;DHT22;31183;47.404;8.500;2023-11-19T06:52:32;10.70;99.90
45435;DHT22;31183;47.404;8.500;2023-11-19T06:54:59;10.80;99.90
45435;DHT22;31183;47.404;8.500;2023-11-19T06:57:28;10.80;99.90
45435;DHT22;31183;47.404;8.500;2023-11-19T06:59:57;10.80;99.90
45435;DHT22;31183;47.404;8.500;2023-11-19T07:02:23;10.90;99.90
45435;DHT22;31183;47.404;8.500;2023-11-19T07:04:53;10.90;99.90
45435;DHT22;31183;47.404;8.500;2023-11-19T07:07:21;10.90;99.90
45435;DHT22;31183;47.404;8.500;2023-11-19T07:09:47;10.90;99.90
45435;DHT22;31183;47.404;8.500;2023-11-19T07:12:14;10.90;99.90
45435;DHT22;31183;47.404;8.500;2023-11-19T07:14:41;11.00;99.90
45435;DHT22;31183;47.404;8.500;2023-11-19T07:17:08;11.00;99.90
45435;DHT22;31183;47.404;8.500;2023-11-19T07:19:36;11.00;99.90
45435;DHT22;31183;47.404;8.500;2023-11-19T07:22:04;11.00;99.90
45435;DHT22;31183;47.404;8.500;2023-11-19T07:24:32;11.10;99.90
45435;DHT22;31183;47.404;8.500;2023-11-19T07:26:59;11.10;99.90
45435;DHT22;31183;47.404;8.500;2023-11-19T07:29:25;11.10;99.90
45435;DHT22;31183;47.404;8.500;2023-11-19T07:31:56;11.10;99.90
45435;DHT22;31183;47.404;8.500;2023-11-19T07:34:24;11.10;99.90
45435;DHT22;31183;47.404;8.500;2023-11-19T07:36:51;11.10;99.90
45435;DHT22;31183;47.404;8.500;2023-11-19T07:39:18;11.10;99.90
45435;DHT22;31183;47.404;8.500;2023-11-19T07:41:45;11.10;99.90
45435;DHT22;31183;47.404;8.500;2023-11-19T07:44:11;11.20;99.90
45435;DHT22;31183;47.404;8.500;2023-11-19T07:46:38;11.20;99.90
45435;DHT22;31183;47.404;8.500;2023-11-19T07:49:05;11.20;99.90
45435;DHT22;31183;47.404;8.500;2023-11-19T07:51:31;11.20;99.90
45435;DHT22;31183;47.404;8.500;2023-11-19T07:53:58;11.20;99.90
45435;DHT22;31183;47.404;8.500;2023-11-19T07:56:25;11.20;99.90
45435;DHT22;31183;47.404;8.500;2023-11-19T07:58:51;11.20;99.90
45435;DHT22;31183;47.404;8.500;2023-11-19T08:01:19;11.20;99.90
45435;DHT22;31183;47.404;8.500;2023-11-19T08:03:45;11.20;99.90
45435;DHT22;31183;47.404;8.500;2023-11-19T08:06:15;11.20;99.90
45435;DHT22;31183;47.404;8.500;2023-11-19T08:08:42;11.20;99.90
45435;DHT22;31183;47.404;8.500;2023-11-19T08:11:09;11.20;99.90
45435;DHT22;31183;47.404;8.500;2023-11-19T08:13:35;11.20;99.90
45435;DHT22;31183;47.404;8.500;2023-11-19T08:16:02;11.20;99.90
45435;DHT22;31183;47.404;8.500;2023-11-19T08:18:29;11.30;99.90
45435;DHT22;31183;47.404;8.500;2023-11-19T08:20:56;11.30;99.90
45435;DHT22;31183;47.404;8.500;2023-11-19T08:23:24;11.30;99.90
45435;DHT22;31183;47.404;8.500;2023-11-19T08:25:52;11.30;99.90
45435;DHT22;31183;47.404;8.500;2023-11-19T08:28:19;11.30;99.90
45435;DHT22;31183;47.404;8.500;2023-11-19T08:30:46;11.30;99.90
45435;DHT22;31183;47.404;8.500;2023-11-19T08:33:12;11.30;99.90
45435;DHT22;31183;47.404;8.500;2023-11-19T08:35:39;11.30;99.90
45435;DHT22;31183;47.404;8.500;2023-11-19T08:38:06;11.30;99.90
45435;DHT22;31183;47.404;8.500;2023-11-19T08:40:33;11.30;99.90
45435;DHT22;31183;47.404;8.500;2023-11-19T08:43:00;11.40;99.90
45435;DHT22;31183;47.404;8.500;2023-11-19T08:45:27;11.40;99.90
45435;DHT22;31183;47.404;8.500;2023-11-19T08:47:53;11.40;99.90
45435;DHT22;31183;47.404;8.500;2023-11-19T08:50:20;11.40;99.90
45435;DHT22;31183;47.404;8.500;2023-11-19T08:52:47;11.50;99.90
45435;DHT22;31183;47.404;8.500;2023-11-19T08:55:13;11.50;99.90
45435;DHT22;31183;47.404;8.500;2023-11-19T08:57:40;11.50;99.90
45435;DHT22;31183;47.404;8.500;2023-11-19T09:00:07;11.50;99.90
45435;DHT22;31183;47.404;8.500;2023-11-19T09:02:35;11.50;99.90
45435;DHT22;31183;47.404;8.500;2023-11-19T09:05:05;11.60;99.90
45435;DHT22;31183;47.404;8.500;2023-11-19T09:07:31;11.60;99.90
45435;DHT22;31183;47.404;8.500;2023-11-19T09:09:58;11.60;99.90
45435;DHT22;31183;47.404;8.500;2023-11-19T09:12:25;11.60;99.90
45435;DHT22;31183;47.404;8.500;2023-11-19T09:14:52;11.60;99.90
45435;DHT22;31183;47.404;8.500;2023-11-19T09:17:18;11.70;99.90
45435;DHT22;31183;47.404;8.500;2023-11-19T09:19:45;11.70;99.90
45435;DHT22;31183;47.404;8.500;2023-11-19T09:22:12;11.70;99.90
45435;DHT22;31183;47.404;8.500;2023-11-19T09:24:38;11.70;99.90
45435;DHT22;31183;47.404;8.500;2023-11-19T09:27:05;11.70;99.90
45435;DHT22;31183;47.404;8.500;2023-11-19T09:29:32;11.80;99.90
45435;DHT22;31183;47.404;8.500;2023-11-19T09:31:59;11.80;99.90
45435;DHT22;31183;47.404;8.500;2023-11-19T09:34:26;11.80;99.90
45435;DHT22;31183;47.404;8.500;2023-11-19T09:36:52;11.80;99.90
45435;DHT22;31183;47.404;8.500;2023-11-19T09:39:19;11.80;99.90
45435;DHT22;31183;47.404;8.500;2023-11-19T09:41:47;11.80;99.90
45435;DHT22;31183;47.404;8.500;2023-11-19T09:44:14;11.80;99.90
45435;DHT22;31183;47.404;8.500;2023-11-19T09:46:44;11.90;99.90
45435;DHT22;31183;47.404;8.500;2023-11-19T09:49:13;11.90;99.90
45435;DHT22;31183;47.404;8.500;2023-11-19T09:51:40;11.90;99.90
45435;DHT22;31183;47.404;8.500;2023-11-19T09:54:08;11.90;99.90
45435;DHT22;31183;47.404;8.500;2023-11-19T09:56:36;11.90;99.90
45435;DHT22;31183;47.404;8.500;2023-11-19T09:59:05;11.90;99.90
45435;DHT22;31183;47.404;8.500;2023-11-19T10:01:31;11.90;99.90
45435;DHT22;31183;47.404;8.500;2023-11-19T10:03:59;11.90;99.90
45435;DHT22;31183;47.404;8.500;2023-11-19T10:06:27;11.90;99.90
45435;DHT22;31183;47.404;8.500;2023-11-19T10:08:54;11.90;99.90
45435;DHT22;31183;47.404;8.500;2023-11-19T10:11:21;11.90;99.90
45435;DHT22;31183;47.404;8.500;2023-11-19T10:13:48;11.90;99.90
45435;DHT22;31183;47.404;8.500;2023-11-19T10:16:15;11.90;99.90
45435;DHT22;31183;47.404;8.500;2023-11-19T10:18:48;11.90;99.90
45435;DHT22;31183;47.404;8.500;2023-11-19T10:21:19;11.90;99.90
45435;DHT22;31183;47.404;8.500;2023-11-19T10:23:50;11.90;99.90
45435;DHT22;31183;47.404;8.500;2023-11-19T10:26:19;11.90;99.90
45435;DHT22;31183;47.404;8.500;2023-11-19T10:28:49;11.90;99.90
45435;DHT22;31183;47.404;8.500;2023-11-19T10:31:18;11.90;99.90
45435;DHT22;31183;47.404;8.500;2023-11-19T10:33:45;11.90;99.90
45435;DHT22;31183;47.404;8.500;2023-11-19T10:36:12;12.00;99.90
45435;DHT22;31183;47.404;8.500;2023-11-19T10:38:40;12.10;99.90
45435;DHT22;31183;47.404;8.500;2023-11-19T10:41:07;12.30;99.90
45435;DHT22;31183;47.404;8.500;2023-11-19T10:43:43;12.30;99.90
45435;DHT22;31183;47.404;8.500;2023-11-19T10:46:14;12.20;99.90
45435;DHT22;31183;47.404;8.500;2023-11-19T10:48:41;12.20;99.90
45435;DHT22;31183;47.404;8.500;2023-11-19T10:51:08;12.20;99.90
45435;DHT22;31183;47.404;8.500;2023-11-19T10:53:37;12.10;99.90
45435;DHT22;31183;47.404;8.500;2023-11-19T10:56:10;12.10;99.90
45435;DHT22;31183;47.404;8.500;2023-11-19T10:58:38;12.10;99.90
45435;DHT22;31183;47.404;8.500;2023-11-19T11:01:13;12.20;99.90
45435;DHT22;31183;47.404;8.500;2023-11-19T11:03:42;12.20;99.90
45435;DHT22;31183;47.404;8.500;2023-11-19T11:06:13;12.20;99.90
45435;DHT22;31183;47.404;8.500;2023-11-19T11:08:40;12.20;99.90
45435;DHT22;31183;47.404;8.500;2023-11-19T11:11:08;12.10;99.90
45435;DHT22;31183;47.404;8.500;2023-11-19T11:13:36;12.10;99.90
45435;DHT22;31183;47.404;8.500;2023-11-19T11:16:04;12.10;99.90
45435;DHT22;31183;47.404;8.500;2023-11-19T11:18:33;12.10;99.90
45435;DHT22;31183;47.404;8.500;2023-11-19T11:29:31;12.20;99.90
45435;DHT22;31183;47.404;8.500;2023-11-19T11:32:35;12.20;99.90
45435;DHT22;31183;47.404;8.500;2023-11-19T11:35:26;12.20;99.90
45435;DHT22;31183;47.404;8.500;2023-11-19T11:38:08;12.20;99.90
45435;DHT22;31183;47.404;8.500;2023-11-19T11:40:35;12.20;99.90
45435;DHT22;31183;47.404;8.500;2023-11-19T11:43:02;12.20;99.90
45435;DHT22;31183;47.404;8.500;2023-11-19T11:45:39;12.20;99.90
45435;DHT22;31183;47.404;8.500;2023-11-19T11:48:15;12.30;99.90
45435;DHT22;31183;47.404;8.500;2023-11-19T11:50:56;12.30;99.90
45435;DHT22;31183;47.404;8.500;2023-11-19T11:53:24;12.30;99.90
45435;DHT22;31183;47.404;8.500;2023-11-19T11:55:54;12.40;99.90
45435;DHT22;31183;47.404;8.500;2023-11-19T11:58:27;12.50;99.90
45435;DHT22;31183;47.404;8.500;2023-11-19T12:00:58;12.50;99.90
45435;DHT22;31183;47.404;8.500;2023-11-19T12:03:28;12.60;99.90
45435;DHT22;31183;47.404;8.500;2023-11-19T12:05:55;12.60;99.90
45435;DHT22;31183;47.404;8.500;2023-11-19T12:08:26;12.60;99.90
45435;DHT22;31183;47.404;8.500;2023-11-19T12:10:54;12.60;99.90
45435;DHT22;31183;47.404;8.500;2023-11-19T12:13:42;12.60;99.90
45435;DHT22;31183;47.404;8.500;2023-11-19T12:16:10;12.60;99.90
45435;DHT22;31183;47.404;8.500;2023-11-19T12:18:39;12.60;99.90
45435;DHT22;31183;47.404;8.500;2023-11-19T12:21:06;12.60;99.90
45435;DHT22;31183;47.404;8.500;2023-11-19T12:23:44;12.70;99.90
45435;DHT22;31183;47.404;8.500;2023-11-19T12:26:30;12.70;99.90
45435;DHT22;31183;47.404;8.500;2023-11-19T12:28:58;12.70;99.90
45435;DHT22;31183;47.404;8.500;2023-11-19T12:31:25;12.80;99.90
45435;DHT22;31183;47.404;8.500;2023-11-19T12:33:52;12.80;99.90
45435;DHT22;31183;47.404;8.500;2023-11-19T12:36:20;12.90;99.90
45435;DHT22;31183;47.404;8.500;2023-11-19T12:38:47;12.90;99.90
45435;DHT22;31183;47.404;8.500;2023-11-19T12:41:13;12.90;99.90
45435;DHT22;31183;47.404;8.500;2023-11-19T12:43:44;12.90;99.90
45435;DHT22;31183;47.404;8.500;2023-11-19T12:48:44;12.90;99.90
45435;DHT22;31183;47.404;8.500;2023-11-19T12:51:10;12.90;99.90
45435;DHT22;31183;47.404;8.500;2023-11-19T12:53:53;12.90;99.90
45435;DHT22;31183;47.404;8.500;2023-11-19T12:56:24;12.90;99.90
45435;DHT22;31183;47.404;8.500;2023-11-19T12:58:51;12.90;99.90
45435;DHT22;31183;47.404;8.500;2023-11-19T13:01:20;12.80;99.90
45435;DHT22;31183;47.404;8.500;2023-11-19T13:03:48;12.80;99.90
45435;DHT22;31183;47.404;8.500;2023-11-19T13:06:18;12.80;99.90
45435;DHT22;31183;47.404;8.500;2023-11-19T13:08:49;12.80;99.90
45435;DHT22;31183;47.404;8.500;2023-11-19T13:11:31;12.90;99.90
45435;DHT22;31183;47.404;8.500;2023-11-19T13:14:00;13.00;99.90
45435;DHT22;31183;47.404;8.500;2023-11-19T13:16:27;13.00;99.90
45435;DHT22;31183;47.404;8.500;2023-11-19T13:18:55;13.10;99.90
45435;DHT22;31183;47.404;8.500;2023-11-19T13:21:21;13.10;99.90
45435;DHT22;31183;47.404;8.500;2023-11-19T13:23:48;13.20;99.90
45435;DHT22;31183;47.404;8.500;2023-11-19T13:26:15;13.10;99.90
45435;DHT22;31183;47.404;8.500;2023-11-19T13:28:42;13.10;99.90
45435;DHT22;31183;47.404;8.500;2023-11-19T13:31:08;13.20;99.90
45435;DHT22;31183;47.404;8.500;2023-11-19T13:33:37;13.20;99.90
45435;DHT22;31183;47.404;8.500;2023-11-19T13:36:04;13.20;99.90
45435;DHT22;31183;47.404;8.500;2023-11-19T13:38:35;13.20;99.90
45435;DHT22;31183;47.404;8.500;2023-11-19T13:41:05;13.20;99.90
45435;DHT22;31183;47.404;8.500;2023-11-19T13:43:32;13.20;99.90
45435;DHT22;31183;47.404;8.500;2023-11-19T13:45:58;13.20;99.90
45435;DHT22;31183;47.404;8.500;2023-11-19T13:48:25;13.20;99.90
45435;DHT22;31183;47.404;8.500;2023-11-19T13:50:53;13.20;99.90
45435;DHT22;31183;47.404;8.500;2023-11-19T13:53:21;13.20;99.90
45435;DHT22;31183;47.404;8.500;2023-11-19T13:55:48;13.20;99.90
45435;DHT22;31183;47.404;8.500;2023-11-19T13:58:14;13.20;99.90
45435;DHT22;31183;47.404;8.500;2023-11-19T14:00:41;13.20;99.90
45435;DHT22;31183;47.404;8.500;2023-11-19T14:03:09;13.20;99.90
45435;DHT22;31183;47.404;8.500;2023-11-19T14:05:38;13.20;99.90
45435;DHT22;31183;47.404;8.500;2023-11-19T14:08:05;13.10;99.90
45435;DHT22;31183;47.404;8.500;2023-11-19T14:10:51;13.20;99.90
45435;DHT22;31183;47.404;8.500;2023-11-19T14:13:18;13.10;99.90
45435;DHT22;31183;47.404;8.500;2023-11-19T14:15:44;13.10;99.90
45435;DHT22;31183;47.404;8.500;2023-11-19T14:18:15;13.10;99.90
45435;DHT22;31183;47.404;8.500;2023-11-19T14:20:42;13.10;99.90
45435;DHT22;31183;47.404;8.500;2023-11-19T14:23:09;13.10;99.90
45435;DHT22;31183;47.404;8.500;2023-11-19T14:25:35;13.10;99.90
45435;DHT22;31183;47.404;8.500;2023-11-19T14:28:02;13.10;99.90
45435;DHT22;31183;47.404;8.500;2023-11-19T14:30:32;13.10;99.90
45435;DHT22;31183;47.404;8.500;2023-11-19T14:32:58;13.00;99.90
45435;DHT22;31183;47.404;8.500;2023-11-19T14:35:25;13.00;99.90
45435;DHT22;31183;47.404;8.500;2023-11-19T14:37:52;13.00;99.90
45435;DHT22;31183;47.404;8.500;2023-11-19T14:40:19;13.00;99.90
45435;DHT22;31183;47.404;8.500;2023-11-19T14:42:46;13.00;99.90
45435;DHT22;31183;47.404;8.500;2023-11-19T14:45:13;13.00;99.90
45435;DHT22;31183;47.404;8.500;2023-11-19T14:47:40;13.00;99.90
45435;DHT22;31183;47.404;8.500;2023-11-19T14:50:07;13.00;99.90
45435;DHT22;31183;47.404;8.500;2023-11-19T14:52:35;13.00;99.90
45435;DHT22;31183;47.404;8.500;2023-11-19T14:55:03;12.90;99.90
45435;DHT22;31183;47.404;8.500;2023-11-19T14:57:30;12.90;99.90
45435;DHT22;31183;47.404;8.500;2023-11-19T14:59:57;12.90;99.90
45435;DHT22;31183;47.404;8.500;2023-11-19T15:02:24;12.90;99.90
45435;DHT22;31183;47.404;8.500;2023-11-19T15:04:50;12.90;99.90
45435;DHT22;31183;47.404;8.500;2023-11-19T15:07:18;12.90;99.90
45435;DHT22;31183;47.404;8.500;2023-11-19T15:09:44;12.90;99.90
45435;DHT22;31183;47.404;8.500;2023-11-19T15:12:12;12.90;99.90
45435;DHT22;31183;47.404;8.500;2023-11-19T15:14:38;12.90;99.90
45435;DHT22;31183;47.404;8.500;2023-11-19T15:17:05;12.90;99.90
45435;DHT22;31183;47.404;8.500;2023-11-19T15:19:33;12.90;99.90
45435;DHT22;31183;47.404;8.500;2023-11-19T15:22:00;12.90;99.90
45435;DHT22;31183;47.404;8.500;2023-11-19T15:24:31;12.90;99.90
45435;DHT22;31183;47.404;8.500;2023-11-19T15:26:57;12.90;99.90
45435;DHT22;31183;47.404;8.500;2023-11-19T15:29:27;12.90;99.90
45435;DHT22;31183;47.404;8.500;2023-11-19T15:31:55;12.90;99.90
45435;DHT22;31183;47.404;8.500;2023-11-19T15:34:21;12.90;99.90
45435;DHT22;31183;47.404;8.500;2023-11-19T15:36:48;12.80;99.90
45435;DHT22;31183;47.404;8.500;2023-11-19T15:39:15;12.90;99.90
45435;DHT22;31183;47.404;8.500;2023-11-19T15:41:41;12.80;99.90
45435;DHT22;31183;47.404;8.500;2023-11-19T15:44:08;12.80;99.90
45435;DHT22;31183;47.404;8.500;2023-11-19T15:46:35;12.80;99.90
45435;DHT22;31183;47.404;8.500;2023-11-19T15:49:01;12.80;99.90
45435;DHT22;31183;47.404;8.500;2023-11-19T15:51:29;12.80;99.90